Decoded Metar for PATL (TATALINA in AK, USA) (IATA:TLJ) | Meteo·Mobile Aviation Weather
aviador You're here:

PATL Decoded Metar

TATALINA in AK, USA
Report Time2020-01-27 18:55:00
UTC Time2020-01-27 19:54:54
Flight Rules vfr VFR
Wind030° at 07 Gusting to 22 kt
W.Decomp.*RWY 34: 6.2 kt HW 3.3 kt RCW
Visibility9999 m
Phenomena:N/A
Clouds:N/A
Expected CloudBase > 1,600 ft AGL from Temp-Dew spread
CeilingNone
Temp-26°C (ISA -39)
Dew Point-30°C (69% RH)
AAT-32.4°C
QNH1006 hPa
Density Alt-3,845 ft
Elevation965 ft
Report Wrong Elevation
Raw Report
PATL 271855Z AUTO 03007G22KT 10SM CLR M26/M30 A2972=

Extra information for PATL:More info

Metar Taf Metar & Taf Last 4 Metars F.Rules Stats Wind Profile Meteogram Temp Stats Airport Information Weather charts Add Link Nearby VenuesMetar ALERT Operation Metar Decoded Social comments

AIRNAV info for PATL